x

La Perouse Bank (46206) Wave Buoy

6:00 - Wed 3rd Jun 2015 All times are PDT. -7 hours from GMT.

  • Sig Wave height 3.0ft
  • Peak Period 11s
  • Wind
    7mph
  • Sea Temp 53°f
  • Air Temp 53°f
  • Sea Pressure 1018.4mb
  • La Perouse Bank
  • La Perouse Bank

More Historic Weather Station data

Upgrade to MSW Pro to gain access to the past 30 days of data for over 8000 Wavebouys and Weather Stations around the globe.

Join Pro

Comparision Forecast

View Surf forecast
   
mer. 06/03 6:00 3ft 11s 7
mph
1018.4mb 53f 53f
5:00 3ft 11s 7
mph
1018.4mb 53f 53f
4:00 3ft 12s 7
mph
1018.4mb 53f 53f
3:00 3ft 12s 4 7 mph 1018.5mb 53f 53f
2:00 2.5ft 11s 4
mph
1018.6mb 53f 53f
1:00 3ft 11s 4 7 mph 1018.5mb 53f 53f
12:00 3ft 12s 4 7 mph 1018.6mb 53f 53f
mar. 06/02 11:00 3.5ft 12s 4 7 mph 1018.4mb 53f 53f
10:00 2.5ft 11s 4
mph
1018.4mb 53f 53f
9:00 2.5ft 12s 4 7 mph 1018.2mb 53f 53f
8:00 2.5ft 11s 7
mph
1018.3mb 53f 53f
7:00 2.5ft 12s 4 7 mph 1018.2mb 53f 53f
6:00 2.5ft 12s 7 9 mph 1018.2mb 53f 53f
5:00 2.5ft 12s 7
mph
1018mb 53f 53f
4:00 2.5ft 12s 9
mph
1017.8mb 53f 53f
3:00 2.5ft 12s 7 9 mph 1017.4mb 54f 53f
2:00 2.5ft 12s 7 9 mph 1017.1mb 54f 52f
1:00 2.5ft 12s 7 9 mph 1016.7mb 53f 52f
12:00 2.5ft 13s 4 7 mph 1016.5mb 53f 53f
11:00 2.5ft 13s 7
mph
1016.1mb 53f 53f
10:00 2.5ft 12s 9 11 mph 1015.7mb 53f 53f
9:00 2.5ft 13s 9
mph
1015.7mb 53f 53f
8:00 2.5ft 12s 9 11 mph 1015.4mb 53f 53f
7:00 2.5ft 13s 9
mph
1015mb 53f 53f
6:00 2.5ft 13s 9 11 mph 1014.8mb 54f 53f
5:00 3ft 13s 9 11 mph 1014.2mb 54f 52f
4:00 2.5ft 12s 9
mph
1014mb 55f 53f
3:00 2.5ft 13s 7 9 mph 1014mb 54f 53f
2:00 2.5ft 14s 9
mph
1013.7mb 54f 52f
1:00 2.5ft 13s 7 9 mph 1013.6mb 54f 52f
12:00 2.5ft 14s 4
mph
1014mb 54f 53f
lun. 06/01 11:00 2.5ft 14s 2
mph
1014.1mb 54f 53f
10:00 2.5ft 14s 2
mph
1014.1mb 54f 53f
9:00 2.5ft 13s 4
mph
1013.7mb 54f 53f
8:00 2.5ft 14s 4
mph
1013.9mb 54f 53f
7:00 2.5ft 14s 2 4 mph 1013.9mb 54f 53f
6:00 2.5ft 12s  -  mph 1013.9mb 54f 53f
5:00 2.5ft 14s 4
mph
1013.7mb 54f 53f
4:00 2.5ft 13s 7 9 mph 1013.8mb 54f 53f
3:00 2.5ft 14s 4 7 mph 1013.6mb 55f 54f
2:00 2.5ft 14s 7 9 mph 1013.5mb 55f 53f
1:00 2.5ft 13s 4 7 mph 1013.2mb 54f 53f
12:00 3ft 14s 7 9 mph 1013.2mb 54f 53f
11:00 3ft 16s 7
mph
1012.9mb 54f 52f
10:00 3ft 14s 4 7 mph 1012.7mb 55f 52f
9:00 3ft 14s 9 11 mph 1012.7mb 55f 52f
8:00 3ft 13s 9 11 mph 1012.1mb 55f 52f
7:00 3ft 14s 7 9 mph 1011.6mb 54f 52f
6:00 3ft 14s 4 7 mph 1010.9mb 54f 52f
5:00 2.5ft 12s 4 7 mph 1010.2mb 54f 52f
4:00 3ft 14s 7 9 mph 1009.7mb 54f 52f
3:00 3ft 15s 9 11 mph 1009.8mb 54f 52f
2:00 3ft 14s 11 13 mph 1009.4mb 54f 51f
1:00 2.5ft 14s 11 13 mph 1009.7mb 54f 51f
12:00 3ft 14s 11 13 mph 1009.3mb 54f 51f
dim. 05/31 11:00 2.5ft 14s 9 11 mph 1009.7mb 54f 51f
10:00 3ft 14s 11 13 mph 1009.7mb 54f 51f
9:00 2.5ft 14s 11 13 mph 1009.9mb 54f 51f
8:00 2.5ft 13s 9 13 mph 1010.1mb 55f 52f
7:00 2.5ft 14s 9 11 mph 1010.5mb 55f 52f
6:00 3ft 14s 11 13 mph 1010.6mb 55f 53f
5:00 3ft 14s 7 9 mph 1011.1mb 55f 53f
3:00 3.5ft 14s 4 7 mph 1011.8mb 55f 53f
2:00 3.5ft 12s 2 4 mph 1012.4mb 55f 54f
1:00 3.5ft 11s 2 4 mph 1012.8mb 55f 53f
12:00 3.5ft 14s 2 4 mph 1012.8mb 54f 52f
11:00 3.5ft 14s  -  2 mph 1012.9mb 54f 53f
10:00 3.5ft 14s 2
mph
1013.1mb 54f 51f
9:00 3.5ft 15s  -  2 mph 1013.2mb 54f 50f
8:00 3.5ft 15s 2 4 mph 1013.5mb 54f 50f
7:00 3.5ft 15s  -  4 mph 1013.4mb 54f 50f
6:00 3.5ft 14s  -  2 mph 1013.4mb 54f 50f
5:00 3.5ft 14s 4 7 mph 1013.5mb 54f 50f
4:00 3.5ft 12s 4 9 mph 1013.7mb 54f 50f
3:00 4ft 14s 7 9 mph 1014.5mb 54f 50f
2:00 4ft 12s 9 11 mph 1014.2mb 54f 51f
1:00 3.5ft 14s 9 13 mph 1014.5mb 54f 51f
12:00 3.5ft 15s 9 11 mph 1014.7mb 54f 52f
sam. 05/30 11:00 3.5ft 15s 9 11 mph 1014.8mb 54f 52f
10:00 3.5ft 15s 9 11 mph 1014.8mb 54f 52f
9:00 3.5ft 15s 9
mph
1014.7mb 53f 52f
8:00 3.5ft 16s 9 11 mph 1014.7mb 54f 52f
7:00 3.5ft 15s 9
mph
1014.9mb 54f 53f
6:00 4ft 14s 7 9 mph 1014.8mb 54f 53f
5:00 4ft 15s 4 9 mph 1015mb 54f 53f
4:00 4ft 16s 7 9 mph 1015.4mb 54f 53f
3:00 4.5ft 15s 2 4 mph 1015.8mb 54f 54f